Las Palomas, New Mexico
Current Conditions -  °F | °C
As of 4:53 PM on Thursday 27 Nov 2014 (Local Time) from KTCS Reporting Station
Clear Clear  
Wind Chill: 17°   Ceiling: Unl
Heat Index: 17°   Visibility: 10mi
Dew Point: -6°   Wind: 5mph
Humidity: 21%   Direction: 200°SSW
Pressure: 30.31"   Gusts: NA
Location:  33.1162°N, 107.291°W
Report Text: KTCS 272353Z AUTO 20004KT 10SM CLR 17/M06 A3031 RMK AO2 SLP222 T01671061 10183 20133 56006 TSNO
Loading
Personal Weather Stations






























Interactive Weather Map New forecast layout! Learn more

10-Day Weather Forecast

Advertisements
Track Severe Weather on mobile